Manquin, Virginia
Current Conditions -  °F | °C
As of 5:35 AM on Friday 31 Oct 2014 (Local Time) from KW96 Reporting Station
Overcast Overcast  
Wind Chill: 42°   Ceiling: 6000
Heat Index: 42°   Visibility: 10mi
Dew Point: 39°   Wind: 0mph
Humidity: 88%   Direction: NA
Pressure: 30"   Gusts: NA
Location:  37.71°N, 77.15°W
Report Text: KW96 310935Z AUTO 00000KT 10SM OVC060 06/04 A3000 RMK AO1 T00580039
Loading
Personal Weather Stations






























Interactive Weather Map
Tropical Storm Tracking
New forecast layout! Learn more

10-Day Weather Forecast

Advertisements
Track Severe Weather on mobile